Time;durP1;ratioP1;P1;durP2;ratioP2;P2;SDS_P1;SDS_P2;PMS_P1;PMS_P2;Temp;Humidity;BMP_temperature;BMP_pressure;BME280_temperature;BME280_humidity;BME280_pressure;Samples;Min_cycle;Max_cycle;Signal;HPM_P1;HPM_P2
2022/01/18 00:01:33;;;;;;;22.00;4.27;;;;;;;6.17;100.00;103582.41;5022053;28;20421;-79
2022/01/18 00:03:59;;;;;;;21.77;5.77;;;;;;;5.96;100.00;103549.19;5021039;28;20443;-79
2022/01/18 00:06:24;;;;;;;24.40;4.57;;;;;;;6.05;100.00;103545.94;5021606;28;20181;-78
2022/01/18 00:08:50;;;;;;;25.50;4.43;;;;;;;6.84;100.00;103699.66;5020083;28;20641;-79
2022/01/18 00:11:18;;;;;;;28.43;6.37;;;;;;;5.79;100.00;103566.28;5009245;28;20273;-78
2022/01/18 00:13:46;;;;;;;27.73;5.60;;;;;;;6.67;100.00;103673.28;5020788;28;20268;-78
2022/01/18 00:18:53;;;;;;;25.03;5.53;;;;;;;6.45;100.00;103656.06;5021483;28;20941;-79
2022/01/18 00:24:08;;;;;;;28.33;6.07;;;;;;;6.18;100.00;103576.09;4998200;28;20458;-79
2022/01/18 00:26:34;;;;;;;30.10;5.40;;;;;;;6.34;100.00;103621.25;5021275;28;20427;-78
2022/01/18 00:29:04;;;;;;;31.67;6.23;;;;;;;6.17;100.00;103578.91;5020552;28;20185;-78
2022/01/18 00:31:40;;;;;;;26.30;5.60;;;;;;;6.13;100.00;103578.22;5020187;28;20713;-79
2022/01/18 00:39:09;;;;;;;30.67;5.60;;;;;;;6.17;100.00;103625.06;5022377;28;20191;-79
2022/01/18 00:41:36;;;;;;;27.43;6.17;;;;;;;5.94;100.00;103570.63;5020534;28;20424;-79
2022/01/18 00:44:03;;;;;;;26.33;6.70;;;;;;;5.97;100.00;103631.69;5022061;28;20747;-79
2022/01/18 00:46:28;;;;;;;29.77;7.30;;;;;;;5.98;100.00;103608.56;5019144;28;20537;-78
2022/01/18 00:48:56;;;;;;;25.17;6.23;;;;;;;5.91;100.00;103560.13;5022197;28;20446;-79
2022/01/18 00:51:21;;;;;;;26.30;5.90;;;;;;;6.17;100.00;103630.38;5019893;28;20193;-79
2022/01/18 00:53:48;;;;;;;28.63;6.73;;;;;;;6.41;100.00;103646.53;5019151;28;20428;-79
2022/01/18 00:58:45;;;;;;;35.30;5.30;;;;;;;6.33;100.00;103588.44;5019653;28;20447;-79
2022/01/18 01:01:11;;;;;;;34.00;7.37;;;;;;;6.68;100.00;103650.97;5017366;28;20502;-79
2022/01/18 01:03:37;;;;;;;31.43;5.70;;;;;;;7.22;100.00;103704.19;5020069;28;20912;-79
2022/01/18 01:06:06;;;;;;;34.00;6.70;;;;;;;6.85;100.00;103636.47;5020377;28;20420;-78
2022/01/18 01:08:34;;;;;;;27.60;5.03;;;;;;;7.22;100.00;103701.50;5019621;28;20427;-78
2022/01/18 01:11:00;;;;;;;43.40;6.63;;;;;;;7.36;100.00;103703.22;5021027;28;20423;-78
2022/01/18 01:13:27;;;;;;;24.73;5.30;;;;;;;6.91;100.00;103647.56;5021083;28;20427;-78
2022/01/18 01:18:40;;;;;;;25.20;5.77;;;;;;;6.68;100.00;103608.28;5021119;28;20530;-79
2022/01/18 01:32:40;;;;;;;28.40;5.07;;;;;;;7.31;100.00;103687.50;5020970;28;20992;-78
2022/01/18 01:45:06;;;;;;;17.17;4.13;;;;;;;7.07;100.00;103694.56;5018956;28;20447;-78
2022/01/18 01:47:36;;;;;;;23.80;5.33;;;;;;;6.57;100.00;103603.72;5021677;28;20185;-78
2022/01/18 01:50:08;;;;;;;25.17;5.20;;;;;;;7.19;100.00;103712.41;5018920;28;20467;-78
2022/01/18 01:52:33;;;;;;;22.30;4.53;;;;;;;6.39;100.00;103570.28;5021086;28;20420;-79
2022/01/18 01:54:59;;;;;;;28.30;4.57;;;;;;;6.59;100.00;103616.94;5020574;28;20919;-79
2022/01/18 01:57:25;;;;;;;21.37;5.13;;;;;;;6.91;100.00;103703.59;5022015;28;20211;-79
2022/01/18 01:59:51;;;;;;;18.80;4.20;;;;;;;6.40;100.00;103583.53;5020006;28;20211;-79
2022/01/18 02:02:16;;;;;;;23.00;4.80;;;;;;;6.95;100.00;103715.81;5020249;28;20211;-79
2022/01/18 02:04:42;;;;;;;19.33;3.60;;;;;;;6.79;100.00;103701.78;5016687;28;20479;-78
2022/01/18 02:07:07;;;;;;;25.03;4.97;;;;;;;6.45;100.00;103653.41;5001216;28;20188;-79
2022/01/18 02:09:33;;;;;;;19.27;4.10;;;;;;;6.00;100.00;103612.84;5018429;28;20193;-79
2022/01/18 02:12:00;;;;;;;21.13;4.03;;;;;;;6.34;100.00;103658.59;5019094;28;20184;-79
2022/01/18 02:14:28;;;;;;;23.73;5.20;;;;;;;6.36;100.00;103677.97;5017785;28;20200;-78
2022/01/18 02:22:22;;;;;;;19.23;4.53;;;;;;;6.57;100.00;103726.38;5019424;28;20475;-79
2022/01/18 02:24:48;;;;;;;23.90;4.70;;;;;;;5.89;100.00;103625.97;5002850;28;20463;-78
2022/01/18 02:27:13;;;;;;;23.30;4.10;;;;;;;6.18;100.00;103671.22;5004819;28;20621;-78
2022/01/18 02:29:39;;;;;;;20.90;5.00;;;;;;;6.65;100.00;103704.53;5020104;28;20189;-78
2022/01/18 02:32:05;;;;;;;22.87;4.73;;;;;;;6.46;100.00;103716.44;5020678;28;20192;-78
2022/01/18 02:34:31;;;;;;;22.20;4.47;;;;;;;6.41;100.00;103710.53;5017252;28;20760;-78
2022/01/18 02:36:57;;;;;;;13.07;3.20;;;;;;;6.00;100.00;103652.81;5017571;28;20547;-78
2022/01/18 02:39:25;;;;;;;19.50;4.90;;;;;;;6.56;100.00;103706.84;5019082;28;20458;-78
2022/01/18 02:42:02;;;;;;;28.23;4.90;;;;;;;6.53;100.00;103706.19;5018346;28;20995;-78
2022/01/18 02:44:29;;;;;;;20.03;4.00;;;;;;;6.36;100.00;103703.78;5005298;28;20446;-78
2022/01/18 02:46:54;;;;;;;22.57;5.63;;;;;;;6.35;100.00;103697.59;5020052;28;20972;-79
2022/01/18 02:49:20;;;;;;;19.50;4.33;;;;;;;6.44;100.00;103712.16;5020245;28;20459;-78
2022/01/18 02:51:46;;;;;;;16.23;4.53;;;;;;;6.48;100.00;103714.53;5004200;28;20268;-78
2022/01/18 02:54:17;;;;;;;20.33;4.90;;;;;;;6.44;100.00;103701.47;5019182;28;20709;-78
2022/01/18 02:57:04;;;;;;;19.70;4.73;;;;;;;6.54;100.00;103706.09;5018887;28;20223;-79
2022/01/18 02:59:47;;;;;;;25.17;5.33;;;;;;;6.61;100.00;103719.88;5004286;28;20435;-78
2022/01/18 03:05:05;;;;;;;22.77;4.37;;;;;;;6.46;100.00;103683.56;5019348;28;20443;-78
2022/01/18 03:07:30;;;;;;;21.10;4.03;;;;;;;6.47;100.00;103722.59;5008079;28;20964;-78
2022/01/18 03:09:56;;;;;;;20.97;4.00;;;;;;;6.19;100.00;103673.78;5005277;28;20440;-79
2022/01/18 03:12:22;;;;;;;20.40;4.20;;;;;;;6.54;100.00;103735.44;5018341;28;20191;-80
2022/01/18 03:14:47;;;;;;;23.77;4.67;;;;;;;6.33;100.00;103691.50;5020692;28;20208;-79
2022/01/18 03:17:13;;;;;;;15.83;3.60;;;;;;;5.62;100.00;103567.38;5019922;28;20649;-79
2022/01/18 03:19:38;;;;;;;16.33;4.23;;;;;;;6.50;100.00;103725.91;5018220;28;20193;-79
2022/01/18 03:22:04;;;;;;;25.50;3.80;;;;;;;6.45;100.00;103709.41;5019187;28;20366;-78
2022/01/18 03:24:46;;;;;;;15.73;3.90;;;;;;;6.69;100.00;103711.38;5033458;22;20232;-74
2022/01/18 03:29:57;;;;;;;22.00;3.83;;;;;;;6.66;100.00;103691.09;5028591;28;20465;-76
2022/01/18 03:32:22;;;;;;;18.10;3.80;;;;;;;6.46;100.00;103679.09;5027735;28;20962;-77
2022/01/18 03:34:48;;;;;;;17.07;4.30;;;;;;;6.63;100.00;103677.13;5023838;28;20838;-76
2022/01/18 03:37:13;;;;;;;16.87;3.73;;;;;;;6.62;100.00;103702.06;5006747;28;20197;-77
2022/01/18 03:39:41;;;;;;;14.43;3.67;;;;;;;6.61;100.00;103663.03;5021076;28;20185;-77
2022/01/18 03:42:34;;;;;;;10.97;2.70;;;;;;;6.58;100.00;103709.41;5021414;28;20204;-76
2022/01/18 03:44:56;;;;;;;21.07;5.10;;;;;;;6.45;100.00;103681.84;5021036;28;20435;-76
2022/01/18 03:47:21;;;;;;;19.67;3.90;;;;;;;6.60;100.00;103688.00;5020223;28;20971;-77
2022/01/18 03:49:46;;;;;;;22.73;4.33;;;;;;;6.39;100.00;103655.59;5021322;28;20420;-77
2022/01/18 03:52:12;;;;;;;19.97;3.80;;;;;;;6.49;100.00;103630.03;5021645;28;20621;-76
2022/01/18 03:54:42;;;;;;;17.37;3.27;;;;;;;6.87;100.00;103728.81;5019788;28;20204;-76
2022/01/18 03:57:09;;;;;;;18.67;4.10;;;;;;;5.85;100.00;103564.06;5021781;28;20196;-77
2022/01/18 03:59:35;;;;;;;18.53;3.70;;;;;;;6.71;100.00;103725.44;5021951;28;20425;-77
2022/01/18 04:02:00;;;;;;;23.43;4.17;;;;;;;6.53;100.00;103684.88;5021584;28;20428;-77
2022/01/18 04:04:26;;;;;;;13.57;3.00;;;;;;;6.97;100.00;103747.69;5022526;28;20220;-77
2022/01/18 04:06:51;;;;;;;15.13;3.33;;;;;;;6.73;100.00;103680.84;5021836;28;20208;-76
2022/01/18 04:09:16;;;;;;;18.63;3.97;;;;;;;6.41;100.00;103635.88;5021363;28;20199;-77
2022/01/18 04:11:42;;;;;;;12.90;3.30;;;;;;;5.97;100.00;103574.88;5020473;28;20564;-76
2022/01/18 04:14:08;;;;;;;15.40;3.90;;;;;;;6.75;100.00;103685.13;5020722;28;20227;-76
2022/01/18 04:16:42;;;;;;;15.03;4.10;;;;;;;6.90;100.00;103712.59;5006960;28;20588;-76
2022/01/18 04:27:31;;;;;;;16.50;3.57;;;;;;;7.16;100.00;103750.84;5022257;28;20415;-76
2022/01/18 04:29:57;;;;;;;18.10;4.27;;;;;;;7.01;100.00;103717.19;5019894;28;20424;-77
2022/01/18 04:32:22;;;;;;;14.80;3.20;;;;;;;7.06;100.00;103732.88;5019701;28;20424;-77
2022/01/18 04:34:47;;;;;;;13.10;3.50;;;;;;;7.16;100.00;103731.31;5021290;28;20215;-76
2022/01/18 04:37:13;;;;;;;13.63;3.67;;;;;;;6.82;100.00;103714.06;5019658;28;20739;-76
2022/01/18 04:39:41;;;;;;;16.53;3.83;;;;;;;6.19;100.00;103591.16;5021194;28;20256;-77
2022/01/18 04:42:36;;;;;;;13.27;3.43;;;;;;;6.51;100.00;103652.13;5018757;28;20180;-76
2022/01/18 04:50:22;;;;;;;18.40;3.07;;;;;;;7.14;100.00;103725.19;5021282;28;20422;-76
2022/01/18 04:52:47;;;;;;;22.23;3.60;;;;;;;7.09;100.00;103752.22;5017204;28;20431;-76
2022/01/18 04:55:15;;;;;;;15.43;3.33;;;;;;;6.98;100.00;103757.44;5021211;28;20215;-76
2022/01/18 04:57:52;;;;;;;13.80;2.73;;;;;;;6.32;100.00;103664.00;5020418;28;20197;-76
2022/01/18 05:00:19;;;;;;;20.70;2.47;;;;;;;6.87;100.00;103751.97;5020832;28;20418;-76
2022/01/18 05:02:47;;;;;;;11.40;2.57;;;;;;;6.50;100.00;103693.91;5018838;28;20455;-76
2022/01/18 05:05:22;;;;;;;14.53;2.90;;;;;;;6.68;100.00;103737.19;5021558;28;20459;-76
2022/01/18 05:07:48;;;;;;;13.83;2.37;;;;;;;6.68;100.00;103760.31;5018957;28;20427;-77
2022/01/18 05:10:16;;;;;;;12.37;2.50;;;;;;;5.88;100.00;103625.13;5019191;28;20423;-76
2022/01/18 05:12:46;;;;;;;9.90;2.30;;;;;;;6.38;100.00;103672.56;5020515;28;20423;-76
2022/01/18 05:23:17;;;;;;;9.70;2.27;;;;;;;6.89;100.00;103740.22;5021707;28;20414;-76
2022/01/18 05:25:45;;;;;;;10.13;2.53;;;;;;;6.97;100.00;103755.72;5018544;28;20672;-76
2022/01/18 05:28:11;;;;;;;13.43;2.43;;;;;;;6.65;100.00;103725.84;5021411;28;20341;-76
2022/01/18 05:30:36;;;;;;;15.70;2.77;;;;;;;6.23;100.00;103642.44;5019652;28;20853;-76
2022/01/18 05:33:02;;;;;;;10.93;2.03;;;;;;;7.08;100.00;103779.84;5020063;28;20276;-77
2022/01/18 05:35:27;;;;;;;13.20;2.10;;;;;;;7.14;100.00;103781.25;5019714;28;20735;-76
2022/01/18 05:37:53;;;;;;;10.20;1.87;;;;;;;7.12;100.00;103786.72;5018229;28;20220;-77
2022/01/18 05:40:19;;;;;;;11.33;1.90;;;;;;;7.10;100.00;103772.63;5018464;28;20189;-76
2022/01/18 05:42:45;;;;;;;9.90;2.37;;;;;;;7.04;100.00;103788.19;5018152;28;20239;-76
2022/01/18 05:45:12;;;;;;;9.97;2.10;;;;;;;6.82;100.00;103730.91;5018752;28;20534;-76
2022/01/18 05:47:39;;;;;;;12.60;2.30;;;;;;;7.09;100.00;103792.25;5018909;28;20423;-77
2022/01/18 05:50:06;;;;;;;11.00;2.60;;;;;;;6.27;100.00;103662.59;5018033;28;20435;-76
2022/01/18 05:52:32;;;;;;;9.20;1.87;;;;;;;6.50;100.00;103671.72;5019698;28;20426;-77
2022/01/18 05:54:57;;;;;;;10.37;2.33;;;;;;;7.10;100.00;103782.44;5018609;28;20443;-76
2022/01/18 05:57:23;;;;;;;8.00;1.57;;;;;;;7.28;100.00;103773.16;5018626;28;21081;-77
2022/01/18 05:59:50;;;;;;;5.17;1.90;;;;;;;6.39;100.00;103695.59;5018587;28;20184;-76
2022/01/18 06:02:32;;;;;;;10.43;2.80;;;;;;;6.95;100.00;103752.31;5019327;28;20180;-77
2022/01/18 06:07:42;;;;;;;7.77;1.93;;;;;;;6.76;100.00;103748.19;5020019;28;20417;-76
2022/01/18 06:10:08;;;;;;;7.50;2.03;;;;;;;6.94;100.00;103787.94;5020346;28;20432;-76
2022/01/18 06:12:33;;;;;;;10.03;1.67;;;;;;;6.38;100.00;103723.22;5019944;28;20246;-77
2022/01/18 06:14:59;;;;;;;7.57;2.03;;;;;;;6.55;100.00;103726.47;5018955;28;20450;-77
2022/01/18 06:17:25;;;;;;;7.97;1.93;;;;;;;6.52;100.00;103729.34;5018266;28;20236;-76
2022/01/18 06:19:50;;;;;;;8.40;2.40;;;;;;;6.42;100.00;103708.72;5017864;28;20188;-76
2022/01/18 06:22:16;;;;;;;7.37;2.50;;;;;;;6.29;100.00;103709.53;5018389;28;20265;-76
2022/01/18 06:24:41;;;;;;;10.97;2.20;;;;;;;6.81;100.00;103817.25;5019269;28;20266;-76
2022/01/18 06:27:07;;;;;;;9.87;2.40;;;;;;;6.81;100.00;103809.25;5019272;28;20270;-76
2022/01/18 06:29:33;;;;;;;6.60;1.70;;;;;;;6.02;100.00;103674.88;5020348;28;20192;-76
2022/01/18 06:31:58;;;;;;;9.40;1.60;;;;;;;6.87;100.00;103810.66;5019872;28;20431;-77
2022/01/18 06:34:24;;;;;;;3.23;1.30;;;;;;;6.05;100.00;103693.34;5017755;28;20201;-76
2022/01/18 06:36:49;;;;;;;6.07;1.47;;;;;;;6.79;100.00;103816.50;5017162;28;20288;-76
2022/01/18 06:39:16;;;;;;;2.80;1.30;;;;;;;5.99;100.00;103680.41;5019178;28;20192;-77
2022/01/18 06:41:43;;;;;;;7.17;1.77;;;;;;;6.56;100.00;103810.84;5019832;28;20203;-77
2022/01/18 06:44:09;;;;;;;9.13;1.60;;;;;;;6.34;100.00;103754.56;5020065;28;20437;-76
2022/01/18 06:46:34;;;;;;;6.10;1.43;;;;;;;6.52;100.00;103793.34;5019032;28;20424;-77
2022/01/18 06:49:00;;;;;;;6.77;1.60;;;;;;;5.77;100.00;103680.03;5018581;28;20185;-77
2022/01/18 06:51:25;;;;;;;7.37;1.83;;;;;;;6.60;100.00;103814.19;5017067;28;20188;-76
2022/01/18 06:53:51;;;;;;;8.57;2.10;;;;;;;6.31;100.00;103768.94;5017657;28;20271;-75
2022/01/18 06:56:20;;;;;;;5.23;1.27;;;;;;;6.55;100.00;103805.63;5018336;28;20258;-76
2022/01/18 06:58:46;;;;;;;9.40;2.00;;;;;;;6.21;100.00;103765.13;5022625;28;20557;-77
2022/01/18 07:01:13;;;;;;;10.57;1.40;;;;;;;6.27;100.00;103754.09;5021581;28;20430;-77
2022/01/18 07:03:39;;;;;;;10.90;2.13;;;;;;;5.57;100.00;103655.50;5022053;28;20189;-77
2022/01/18 07:06:05;;;;;;;6.83;1.83;;;;;;;5.65;100.00;103669.22;5021747;28;21037;-77
2022/01/18 07:08:30;;;;;;;7.27;1.60;;;;;;;6.00;100.00;103721.22;5021664;28;20514;-76
2022/01/18 07:10:56;;;;;;;8.80;1.67;;;;;;;5.57;100.00;103655.50;5021645;28;20208;-76
2022/01/18 07:13:22;;;;;;;9.80;1.83;;;;;;;6.36;100.00;103800.63;5022230;28;20189;-76
2022/01/18 07:15:47;;;;;;;7.03;1.17;;;;;;;6.61;100.00;103831.06;5023706;28;20924;-77
2022/01/18 07:18:13;;;;;;;6.90;1.27;;;;;;;6.06;100.00;103755.47;5022222;28;20204;-76
2022/01/18 07:20:40;;;;;;;8.23;1.50;;;;;;;6.11;100.00;103722.25;5023359;28;20668;-77
2022/01/18 07:23:11;;;;;;;7.90;1.60;;;;;;;6.26;100.00;103764.84;5021465;28;20259;-77
2022/01/18 07:25:42;;;;;;;4.63;1.50;;;;;;;6.49;100.00;103788.22;5021841;28;20468;-77
2022/01/18 07:28:08;;;;;;;7.63;1.70;;;;;;;6.37;100.00;103756.19;5021640;28;20436;-77
2022/01/18 07:30:33;;;;;;;6.20;2.40;;;;;;;5.87;100.00;103711.31;5021019;28;20494;-77
2022/01/18 07:32:58;;;;;;;4.60;1.27;;;;;;;5.40;100.00;103653.06;5020429;28;20224;-77
2022/01/18 07:35:25;;;;;;;9.57;1.60;;;;;;;6.13;100.00;103780.75;5021208;28;20736;-76
2022/01/18 07:37:51;;;;;;;8.23;2.50;;;;;;;6.42;100.00;103842.03;5021151;28;20264;-76
2022/01/18 07:40:16;;;;;;;6.43;1.70;;;;;;;6.07;100.00;103762.50;5019482;28;20423;-77
2022/01/18 07:42:42;;;;;;;8.03;2.00;;;;;;;6.39;100.00;103800.41;5021944;28;20185;-76
2022/01/18 07:45:08;;;;;;;7.37;2.00;;;;;;;6.37;100.00;103814.84;5019934;28;20204;-76
2022/01/18 07:47:33;;;;;;;4.93;2.10;;;;;;;5.44;100.00;103682.06;5021107;28;20180;-77
2022/01/18 07:49:59;;;;;;;11.20;2.43;;;;;;;4.96;100.00;103619.41;5021212;28;20438;-77
2022/01/18 07:52:24;;;;;;;5.97;2.40;;;;;;;5.49;100.00;103689.75;5023014;28;20276;-77
2022/01/18 07:54:50;;;;;;;6.57;2.67;;;;;;;6.49;100.00;103840.69;5023760;28;20205;-76
2022/01/18 07:57:16;;;;;;;11.33;2.97;;;;;;;5.92;100.00;103736.81;5021969;28;20601;-76
2022/01/18 07:59:41;;;;;;;4.47;2.10;;;;;;;6.39;100.00;103827.06;5021637;28;20428;-76
2022/01/18 08:02:07;;;;;;;6.93;1.67;;;;;;;5.80;100.00;103710.00;5021039;28;20634;-76
2022/01/18 08:04:32;;;;;;;5.80;1.50;;;;;;;6.47;100.00;103824.78;5020199;28;20212;-76
2022/01/18 08:06:57;;;;;;;4.03;1.63;;;;;;;5.86;100.00;103719.41;5018577;28;20185;-76
2022/01/18 08:09:23;;;;;;;6.30;1.50;;;;;;;6.41;100.00;103811.84;5019516;28;20184;-76
2022/01/18 08:11:51;;;;;;;4.60;1.80;;;;;;;5.94;100.00;103713.63;5019992;28;20188;-77
2022/01/18 08:14:17;;;;;;;7.37;1.50;;;;;;;5.32;100.00;103587.03;5019146;28;20212;-75
2022/01/18 08:16:48;;;;;;;4.13;1.20;;;;;;;6.06;100.00;103721.69;5022003;28;20569;-77
2022/01/18 08:19:15;;;;;;;4.27;1.13;;;;;;;6.79;100.00;103836.03;5020277;28;20447;-77
2022/01/18 08:21:40;;;;;;;2.90;1.40;;;;;;;6.56;100.00;103837.53;5019864;28;20480;-76
2022/01/18 08:24:06;;;;;;;3.20;1.20;;;;;;;6.06;100.00;103772.31;5019966;28;20428;-77
2022/01/18 08:26:31;;;;;;;5.17;1.30;;;;;;;5.68;100.00;103723.25;5005679;28;20925;-76
2022/01/18 08:28:56;;;;;;;5.30;1.20;;;;;;;5.62;100.00;103704.03;5020439;28;20181;-77
2022/01/18 08:31:22;;;;;;;2.43;1.23;;;;;;;6.20;100.00;103795.44;5018871;28;20196;-78
2022/01/18 08:33:47;;;;;;;7.33;1.57;;;;;;;6.22;100.00;103784.66;5021538;28;20188;-77
2022/01/18 08:36:13;;;;;;;4.40;1.53;;;;;;;5.68;100.00;103699.28;5016477;28;20315;-78
2022/01/18 08:38:39;;;;;;;7.10;1.50;;;;;;;5.76;100.00;103720.94;5020560;28;20189;-76
2022/01/18 08:41:05;;;;;;;4.07;1.43;;;;;;;6.69;100.00;103842.09;5020459;28;20502;-77
2022/01/18 08:43:31;;;;;;;7.03;2.20;;;;;;;6.65;100.00;103843.22;5020997;28;20795;-76
2022/01/18 08:46:00;;;;;;;3.57;1.53;;;;;;;6.56;100.00;103840.19;5019662;28;20452;-76
2022/01/18 08:48:26;;;;;;;5.73;1.77;;;;;;;6.83;100.00;103844.72;5021075;28;20268;-76
2022/01/18 08:50:52;;;;;;;3.07;1.03;;;;;;;6.52;100.00;103822.69;5021497;28;20510;-76
2022/01/18 08:53:17;;;;;;;7.27;1.50;;;;;;;6.06;100.00;103793.63;5019072;28;20196;-76
2022/01/18 08:55:43;;;;;;;4.33;1.10;;;;;;;6.02;100.00;103749.50;5020051;28;20627;-77
2022/01/18 08:58:08;;;;;;;3.27;1.20;;;;;;;5.13;100.00;103643.19;5019757;28;20205;-77
2022/01/18 09:00:34;;;;;;;6.07;2.10;;;;;;;6.55;100.00;103859.81;5019801;28;20181;-76
2022/01/18 09:03:00;;;;;;;6.47;1.70;;;;;;;5.74;100.00;103753.00;5017086;28;20600;-76
2022/01/18 09:05:26;;;;;;;4.37;1.77;;;;;;;6.21;100.00;103797.13;5020007;28;20455;-76
2022/01/18 09:07:52;;;;;;;3.47;2.03;;;;;;;6.44;100.00;103835.66;5020617;28;20419;-76
2022/01/18 09:10:18;;;;;;;10.63;3.17;;;;;;;4.94;100.00;103589.38;5021355;28;20235;-77
2022/01/18 09:12:44;;;;;;;8.07;1.40;;;;;;;6.21;100.00;103842.44;5020265;28;20822;-77
2022/01/18 09:15:12;;;;;;;4.13;1.53;;;;;;;5.75;100.00;103749.38;5019694;28;20473;-76
2022/01/18 09:17:40;;;;;;;5.80;1.50;;;;;;;6.27;100.00;103810.06;5003388;28;20254;-76
2022/01/18 09:20:08;;;;;;;6.77;1.50;;;;;;;6.68;100.00;103851.91;5020009;28;20484;-76
2022/01/18 09:22:38;;;;;;;5.03;1.50;;;;;;;6.70;100.00;103857.13;5020217;28;20779;-77
2022/01/18 09:25:08;;;;;;;4.17;1.40;;;;;;;6.36;100.00;103835.28;5035739;23;20603;-74
2022/01/18 09:27:33;;;;;;;8.83;2.23;;;;;;;6.47;100.00;103862.13;5044395;28;20838;-73
2022/01/18 09:29:59;;;;;;;7.37;1.97;;;;;;;6.41;100.00;103862.50;5028805;28;20438;-73
2022/01/18 09:32:25;;;;;;;9.47;2.40;;;;;;;6.63;100.00;103861.16;5045903;28;20551;-74
2022/01/18 09:34:51;;;;;;;7.23;2.27;;;;;;;6.27;100.00;103811.88;5029921;28;20306;-74
2022/01/18 09:37:17;;;;;;;8.90;2.43;;;;;;;6.31;100.00;103816.94;5045002;28;21060;-73
2022/01/18 09:39:42;;;;;;;10.63;2.53;;;;;;;6.23;100.00;103802.38;5047093;28;20433;-74
2022/01/18 09:42:10;;;;;;;13.03;2.60;;;;;;;5.99;100.00;103749.69;5045654;28;20207;-74
2022/01/18 09:44:36;;;;;;;10.07;3.00;;;;;;;6.62;100.00;103819.41;5046011;28;20245;-74
2022/01/18 09:47:04;;;;;;;10.23;3.10;;;;;;;6.82;100.00;103850.97;5046394;28;20524;-74
2022/01/18 09:49:30;;;;;;;7.40;2.10;;;;;;;6.60;100.00;103867.53;5022739;28;20489;-74
2022/01/18 09:51:55;;;;;;;7.47;2.40;;;;;;;6.48;100.00;103839.84;5045242;28;20501;-74
2022/01/18 09:54:20;;;;;;;9.50;2.30;;;;;;;6.01;100.00;103781.53;5046520;28;20422;-74
2022/01/18 09:56:46;;;;;;;8.37;2.17;;;;;;;6.72;100.00;103868.56;5046364;28;20211;-74
2022/01/18 09:59:11;;;;;;;9.93;2.00;;;;;;;5.99;100.00;103776.34;5025984;28;20287;-74
2022/01/18 10:01:37;;;;;;;7.40;2.43;;;;;;;6.03;100.00;103785.81;5046060;28;20183;-74
2022/01/18 10:04:18;;;;;;;8.63;2.50;;;;;;;6.51;100.00;103884.97;5045598;28;20176;-74
2022/01/18 10:06:52;;;;;;;7.83;2.50;;;;;;;6.70;100.00;103886.47;5045212;28;20175;-73
2022/01/18 10:09:19;;;;;;;8.80;2.77;;;;;;;6.56;100.00;103866.00;5043229;28;20496;-74
2022/01/18 10:12:02;;;;;;;7.43;2.63;;;;;;;6.81;100.00;103885.78;5044036;28;20410;-74
2022/01/18 10:14:29;;;;;;;6.77;1.97;;;;;;;6.09;100.00;103788.09;5043940;28;20449;-74
2022/01/18 10:16:54;;;;;;;6.13;2.43;;;;;;;6.97;100.00;103921.16;5046210;28;20489;-74
2022/01/18 10:19:48;;;;;;;7.77;2.40;;;;;;;6.93;100.00;103891.16;5045355;28;20504;-74
2022/01/18 10:22:21;;;;;;;6.57;2.27;;;;;;;6.86;100.00;103895.19;5045565;28;20195;-75
2022/01/18 10:24:46;;;;;;;5.30;2.10;;;;;;;7.15;100.00;103890.63;5045201;28;20450;-74
2022/01/18 10:27:13;;;;;;;12.97;2.50;;;;;;;6.91;100.00;103861.03;5045677;28;20428;-75
2022/01/18 10:29:48;;;;;;;6.00;1.90;;;;;;;7.20;100.00;103880.50;5044100;28;20422;-74
2022/01/18 10:32:27;;;;;;;10.40;2.23;;;;;;;7.21;100.00;103884.88;5049422;28;20422;-74
2022/01/18 10:37:21;;;;;;;12.07;2.90;;;;;;;7.14;100.00;103875.53;5049715;28;20471;-75
2022/01/18 10:40:07;;;;;;;10.93;2.50;;;;;;;7.12;100.00;103860.63;5050293;28;20198;-74
2022/01/18 10:42:46;;;;;;;6.37;2.30;;;;;;;7.35;100.00;103878.63;5030259;28;21015;-73
2022/01/18 10:45:24;;;;;;;8.10;1.87;;;;;;;6.59;100.00;103783.13;5051373;28;20440;-75
2022/01/18 10:47:56;;;;;;;11.87;2.20;;;;;;;7.19;100.00;103876.09;5049722;28;20914;-75
2022/01/18 10:50:21;;;;;;;6.50;2.03;;;;;;;6.60;100.00;103765.34;5049253;28;20425;-75
2022/01/18 10:52:47;;;;;;;7.60;1.97;;;;;;;6.89;100.00;103838.13;5049427;28;20426;-75
2022/01/18 10:55:24;;;;;;;7.43;1.40;;;;;;;7.16;100.00;103870.13;5047259;28;20279;-74
2022/01/18 10:57:50;;;;;;;6.70;2.00;;;;;;;7.23;100.00;103868.72;5049497;28;20487;-74
2022/01/18 11:00:17;;;;;;;8.60;2.37;;;;;;;7.14;100.00;103866.69;5032839;28;20505;-75
2022/01/18 11:02:51;;;;;;;12.40;2.83;;;;;;;7.24;100.00;103867.78;5048957;28;20418;-74
2022/01/18 11:05:29;;;;;;;9.90;1.67;;;;;;;7.37;100.00;103860.66;5047962;28;20442;-74
2022/01/18 11:08:00;;;;;;;12.73;2.50;;;;;;;7.16;100.00;103873.63;5049979;28;20501;-74
2022/01/18 11:10:34;;;;;;;7.93;2.63;;;;;;;7.15;100.00;103815.03;5047010;28;20963;-74
2022/01/18 11:13:04;;;;;;;6.63;2.20;;;;;;;7.35;100.00;103857.25;5049297;28;20418;-74
2022/01/18 11:15:32;;;;;;;7.63;1.87;;;;;;;7.32;100.00;103848.56;5031965;28;20442;-74
2022/01/18 11:18:01;;;;;;;6.60;1.73;;;;;;;7.13;100.00;103812.44;5042719;28;21023;-74
2022/01/18 11:20:30;;;;;;;10.67;2.40;;;;;;;7.39;100.00;103842.72;5049940;28;20784;-74
2022/01/18 11:22:55;;;;;;;11.53;2.60;;;;;;;6.88;100.00;103785.69;5049016;28;20418;-76
2022/01/18 11:25:22;;;;;;;9.10;2.53;;;;;;;6.94;100.00;103820.84;5050255;28;21013;-75
2022/01/18 11:27:51;;;;;;;8.10;2.20;;;;;;;7.22;100.00;103841.19;5050101;28;21063;-75
2022/01/18 11:30:20;;;;;;;10.50;4.07;;;;;;;7.33;100.00;103831.59;5049423;28;20549;-74
2022/01/18 11:32:46;;;;;;;11.50;2.57;;;;;;;7.12;100.00;103796.53;5049573;28;20517;-74
2022/01/18 11:35:17;;;;;;;9.63;2.87;;;;;;;7.39;100.00;103836.53;5049943;28;20444;-74
2022/01/18 11:37:57;;;;;;;7.13;2.50;;;;;;;7.26;100.00;103812.44;5048900;28;20511;-74
2022/01/18 11:40:23;;;;;;;7.13;2.20;;;;;;;6.81;100.00;103750.56;5031758;28;20428;-75
2022/01/18 11:42:51;;;;;;;7.37;2.70;;;;;;;7.45;100.00;103823.59;5047705;28;20477;-74
2022/01/18 11:45:25;;;;;;;7.07;2.47;;;;;;;7.39;100.00;103809.81;5046745;28;20878;-73
2022/01/18 11:48:00;;;;;;;10.77;3.90;;;;;;;7.50;100.00;103815.28;5048753;28;20515;-74
2022/01/18 11:50:31;;;;;;;7.30;3.17;;;;;;;6.99;100.00;103762.66;5047929;28;20429;-74
2022/01/18 11:53:21;;;;;;;10.20;2.93;;;;;;;7.29;100.00;103822.94;5048021;28;20433;-74
2022/01/18 11:55:47;;;;;;;10.83;2.87;;;;;;;7.21;100.00;103793.25;5047427;28;20847;-73
2022/01/18 11:58:13;;;;;;;10.50;2.43;;;;;;;6.98;100.00;103758.28;5046085;28;20465;-74
2022/01/18 12:00:57;;;;;;;15.43;3.50;;;;;;;7.33;100.00;103803.09;5045563;28;20180;-73
2022/01/18 12:03:27;;;;;;;11.20;2.87;;;;;;;7.34;100.00;103793.25;5046500;28;20274;-73
2022/01/18 12:05:54;;;;;;;11.43;3.13;;;;;;;7.44;100.00;103811.22;5045263;28;20485;-74
2022/01/18 12:08:33;;;;;;;9.80;4.47;;;;;;;7.14;100.00;103755.41;5047269;28;20406;-73
2022/01/18 12:11:00;;;;;;;11.70;3.90;;;;;;;6.89;100.00;103756.25;5047029;28;20418;-74
2022/01/18 12:13:34;;;;;;;10.00;3.67;;;;;;;7.30;100.00;103813.97;5046797;28;20430;-73
2022/01/18 12:16:03;;;;;;;9.50;3.40;;;;;;;7.04;100.00;103789.03;5046304;28;20437;-74
2022/01/18 12:18:30;;;;;;;8.43;3.63;;;;;;;7.59;100.00;103803.94;5047067;28;20468;-74
2022/01/18 12:21:01;;;;;;;10.33;3.60;;;;;;;6.14;100.00;103606.59;5046888;28;20491;-74
2022/01/18 12:23:40;;;;;;;7.70;3.00;;;;;;;7.17;100.00;103741.00;5048591;28;20422;-74
2022/01/18 12:37:07;;;;;;;14.77;4.23;;;;;;;7.34;100.00;103803.94;5049144;28;20458;-74
2022/01/18 12:45:07;;;;;;;11.80;4.30;;;;;;;7.14;100.00;103805.28;5049178;28;20443;-75
2022/01/18 12:47:35;;;;;;;12.60;4.50;;;;;;;7.23;100.00;103801.97;5040146;28;20422;-74
2022/01/18 12:50:01;;;;;;;8.30;4.13;;;;;;;7.22;100.00;103781.59;5048114;28;20434;-74
2022/01/18 12:52:44;;;;;;;10.33;4.13;;;;;;;7.08;100.00;103744.31;5046528;28;20453;-74
2022/01/18 12:55:32;;;;;;;9.30;3.37;;;;;;;7.23;100.00;103775.28;5044068;28;21159;-74
2022/01/18 12:57:58;;;;;;;12.40;4.20;;;;;;;7.41;100.00;103800.75;5028369;28;20466;-73